sensor_id;sensor_type;location;lat;lon;timestamp;P1;durP1;ratioP1;P2;durP2;ratioP2
43449;SDS011;29041;42.266;23.110;2024-03-06T00:01:05;9.70;;;5.00;;
43449;SDS011;29041;42.266;23.110;2024-03-06T00:03:53;9.30;;;4.82;;
43449;SDS011;29041;42.266;23.110;2024-03-06T00:06:40;6.78;;;4.00;;
43449;SDS011;29041;42.266;23.110;2024-03-06T00:09:27;9.15;;;4.80;;
43449;SDS011;29041;42.266;23.110;2024-03-06T00:12:15;11.40;;;5.18;;
43449;SDS011;29041;42.266;23.110;2024-03-06T00:15:02;12.13;;;4.97;;
43449;SDS011;29041;42.266;23.110;2024-03-06T00:17:51;10.25;;;4.68;;
43449;SDS011;29041;42.266;23.110;2024-03-06T00:20:38;14.48;;;5.68;;
43449;SDS011;29041;42.266;23.110;2024-03-06T00:23:26;8.55;;;4.70;;
43449;SDS011;29041;42.266;23.110;2024-03-06T00:26:13;11.07;;;5.15;;
43449;SDS011;29041;42.266;23.110;2024-03-06T00:29:00;15.45;;;7.18;;
43449;SDS011;29041;42.266;23.110;2024-03-06T00:31:47;15.18;;;7.60;;
43449;SDS011;29041;42.266;23.110;2024-03-06T00:34:36;9.98;;;5.57;;
43449;SDS011;29041;42.266;23.110;2024-03-06T00:37:23;15.10;;;6.22;;
43449;SDS011;29041;42.266;23.110;2024-03-06T00:40:11;12.70;;;6.07;;
43449;SDS011;29041;42.266;23.110;2024-03-06T00:42:59;11.85;;;5.82;;
43449;SDS011;29041;42.266;23.110;2024-03-06T00:45:46;12.15;;;5.25;;
43449;SDS011;29041;42.266;23.110;2024-03-06T00:48:36;15.05;;;6.18;;
43449;SDS011;29041;42.266;23.110;2024-03-06T00:51:25;10.77;;;5.25;;
43449;SDS011;29041;42.266;23.110;2024-03-06T00:54:12;15.48;;;6.88;;
43449;SDS011;29041;42.266;23.110;2024-03-06T00:56:59;11.90;;;6.47;;
43449;SDS011;29041;42.266;23.110;2024-03-06T00:59:47;26.85;;;8.68;;
43449;SDS011;29041;42.266;23.110;2024-03-06T01:02:34;17.35;;;8.57;;
43449;SDS011;29041;42.266;23.110;2024-03-06T01:05:21;16.60;;;7.43;;
43449;SDS011;29041;42.266;23.110;2024-03-06T01:08:09;12.20;;;5.82;;
43449;SDS011;29041;42.266;23.110;2024-03-06T01:10:56;15.82;;;6.70;;
43449;SDS011;29041;42.266;23.110;2024-03-06T01:13:44;9.48;;;5.18;;
43449;SDS011;29041;42.266;23.110;2024-03-06T01:16:31;11.25;;;4.35;;
43449;SDS011;29041;42.266;23.110;2024-03-06T01:19:18;14.27;;;4.65;;
43449;SDS011;29041;42.266;23.110;2024-03-06T01:22:05;9.70;;;4.88;;
43449;SDS011;29041;42.266;23.110;2024-03-06T01:24:54;11.85;;;4.78;;
43449;SDS011;29041;42.266;23.110;2024-03-06T01:27:41;16.17;;;5.72;;
43449;SDS011;29041;42.266;23.110;2024-03-06T01:30:28;17.02;;;7.97;;
43449;SDS011;29041;42.266;23.110;2024-03-06T01:33:15;15.13;;;5.05;;
43449;SDS011;29041;42.266;23.110;2024-03-06T01:36:03;15.73;;;6.78;;
43449;SDS011;29041;42.266;23.110;2024-03-06T01:38:50;13.45;;;5.50;;
43449;SDS011;29041;42.266;23.110;2024-03-06T01:41:41;15.35;;;6.18;;
43449;SDS011;29041;42.266;23.110;2024-03-06T01:44:32;13.85;;;5.15;;
43449;SDS011;29041;42.266;23.110;2024-03-06T01:47:19;13.00;;;5.82;;
43449;SDS011;29041;42.266;23.110;2024-03-06T01:50:07;14.52;;;5.65;;
43449;SDS011;29041;42.266;23.110;2024-03-06T01:52:56;9.57;;;5.05;;
43449;SDS011;29041;42.266;23.110;2024-03-06T01:55:43;15.32;;;5.85;;
43449;SDS011;29041;42.266;23.110;2024-03-06T01:58:32;9.65;;;5.32;;
43449;SDS011;29041;42.266;23.110;2024-03-06T02:01:21;13.15;;;5.10;;
43449;SDS011;29041;42.266;23.110;2024-03-06T02:04:09;12.85;;;5.80;;
43449;SDS011;29041;42.266;23.110;2024-03-06T02:06:58;12.85;;;4.40;;
43449;SDS011;29041;42.266;23.110;2024-03-06T02:09:45;11.82;;;5.28;;
43449;SDS011;29041;42.266;23.110;2024-03-06T02:12:33;12.65;;;5.97;;
43449;SDS011;29041;42.266;23.110;2024-03-06T02:15:23;10.20;;;4.97;;
43449;SDS011;29041;42.266;23.110;2024-03-06T02:18:11;18.85;;;7.40;;
43449;SDS011;29041;42.266;23.110;2024-03-06T02:20:59;13.98;;;6.55;;
43449;SDS011;29041;42.266;23.110;2024-03-06T02:23:46;13.30;;;6.72;;
43449;SDS011;29041;42.266;23.110;2024-03-06T02:26:34;11.80;;;5.75;;
43449;SDS011;29041;42.266;23.110;2024-03-06T02:29:23;12.35;;;5.82;;
43449;SDS011;29041;42.266;23.110;2024-03-06T02:32:12;11.10;;;6.40;;
43449;SDS011;29041;42.266;23.110;2024-03-06T02:35:00;14.10;;;6.07;;
43449;SDS011;29041;42.266;23.110;2024-03-06T02:37:49;12.18;;;5.38;;
43449;SDS011;29041;42.266;23.110;2024-03-06T02:40:42;12.80;;;7.50;;
43449;SDS011;29041;42.266;23.110;2024-03-06T02:43:30;17.40;;;5.82;;
43449;SDS011;29041;42.266;23.110;2024-03-06T02:46:17;13.02;;;6.95;;
43449;SDS011;29041;42.266;23.110;2024-03-06T02:49:04;15.00;;;5.65;;
43449;SDS011;29041;42.266;23.110;2024-03-06T02:51:52;17.42;;;6.43;;
43449;SDS011;29041;42.266;23.110;2024-03-06T02:54:41;17.70;;;7.65;;
43449;SDS011;29041;42.266;23.110;2024-03-06T02:57:29;13.73;;;6.10;;
43449;SDS011;29041;42.266;23.110;2024-03-06T03:00:16;19.40;;;8.15;;
43449;SDS011;29041;42.266;23.110;2024-03-06T03:03:04;14.82;;;6.13;;
43449;SDS011;29041;42.266;23.110;2024-03-06T03:05:51;14.93;;;6.50;;
43449;SDS011;29041;42.266;23.110;2024-03-06T03:08:38;11.90;;;6.13;;
43449;SDS011;29041;42.266;23.110;2024-03-06T03:11:27;15.20;;;6.30;;
43449;SDS011;29041;42.266;23.110;2024-03-06T03:14:14;11.52;;;6.00;;
43449;SDS011;29041;42.266;23.110;2024-03-06T03:17:01;16.02;;;6.13;;
43449;SDS011;29041;42.266;23.110;2024-03-06T03:19:48;15.35;;;7.28;;
43449;SDS011;29041;42.266;23.110;2024-03-06T03:22:35;16.48;;;6.75;;
43449;SDS011;29041;42.266;23.110;2024-03-06T03:25:23;13.45;;;6.30;;
43449;SDS011;29041;42.266;23.110;2024-03-06T03:28:12;18.08;;;7.03;;
43449;SDS011;29041;42.266;23.110;2024-03-06T03:30:59;18.98;;;7.30;;
43449;SDS011;29041;42.266;23.110;2024-03-06T03:33:47;13.98;;;6.07;;
43449;SDS011;29041;42.266;23.110;2024-03-06T03:36:34;14.13;;;7.07;;
43449;SDS011;29041;42.266;23.110;2024-03-06T03:39:23;14.98;;;7.10;;
43449;SDS011;29041;42.266;23.110;2024-03-06T03:42:12;14.85;;;6.45;;
43449;SDS011;29041;42.266;23.110;2024-03-06T03:45:01;12.73;;;5.65;;
43449;SDS011;29041;42.266;23.110;2024-03-06T03:47:48;13.73;;;5.97;;
43449;SDS011;29041;42.266;23.110;2024-03-06T03:50:36;19.00;;;6.47;;
43449;SDS011;29041;42.266;23.110;2024-03-06T03:53:23;17.08;;;6.63;;
43449;SDS011;29041;42.266;23.110;2024-03-06T03:56:10;15.63;;;6.05;;
43449;SDS011;29041;42.266;23.110;2024-03-06T03:58:58;14.45;;;6.45;;
43449;SDS011;29041;42.266;23.110;2024-03-06T04:01:49;14.00;;;5.90;;
43449;SDS011;29041;42.266;23.110;2024-03-06T04:04:37;10.13;;;5.22;;
43449;SDS011;29041;42.266;23.110;2024-03-06T04:07:24;17.42;;;8.23;;
43449;SDS011;29041;42.266;23.110;2024-03-06T04:10:11;14.95;;;6.25;;
43449;SDS011;29041;42.266;23.110;2024-03-06T04:12:58;14.45;;;6.00;;
43449;SDS011;29041;42.266;23.110;2024-03-06T04:15:46;11.73;;;5.80;;
43449;SDS011;29041;42.266;23.110;2024-03-06T04:18:34;16.50;;;6.35;;
43449;SDS011;29041;42.266;23.110;2024-03-06T04:21:22;12.85;;;6.15;;
43449;SDS011;29041;42.266;23.110;2024-03-06T04:24:09;18.95;;;6.78;;
43449;SDS011;29041;42.266;23.110;2024-03-06T04:26:56;19.48;;;8.35;;
43449;SDS011;29041;42.266;23.110;2024-03-06T04:29:46;16.15;;;5.97;;
43449;SDS011;29041;42.266;23.110;2024-03-06T04:32:34;14.63;;;5.97;;
43449;SDS011;29041;42.266;23.110;2024-03-06T04:35:23;15.60;;;5.60;;
43449;SDS011;29041;42.266;23.110;2024-03-06T04:38:10;11.38;;;5.65;;
43449;SDS011;29041;42.266;23.110;2024-03-06T04:40:57;13.07;;;6.82;;
43449;SDS011;29041;42.266;23.110;2024-03-06T04:43:47;13.68;;;6.55;;
43449;SDS011;29041;42.266;23.110;2024-03-06T04:46:36;19.73;;;7.30;;
43449;SDS011;29041;42.266;23.110;2024-03-06T04:49:23;11.15;;;6.57;;
43449;SDS011;29041;42.266;23.110;2024-03-06T04:52:11;17.58;;;6.80;;
43449;SDS011;29041;42.266;23.110;2024-03-06T04:54:58;13.98;;;6.93;;
43449;SDS011;29041;42.266;23.110;2024-03-06T04:57:48;12.13;;;6.03;;
43449;SDS011;29041;42.266;23.110;2024-03-06T05:00:38;17.75;;;7.13;;
43449;SDS011;29041;42.266;23.110;2024-03-06T05:03:25;15.77;;;7.63;;
43449;SDS011;29041;42.266;23.110;2024-03-06T05:06:13;16.40;;;7.55;;
43449;SDS011;29041;42.266;23.110;2024-03-06T05:09:02;21.27;;;8.13;;
43449;SDS011;29041;42.266;23.110;2024-03-06T05:11:51;14.65;;;6.97;;
43449;SDS011;29041;42.266;23.110;2024-03-06T05:14:38;18.27;;;7.93;;
43449;SDS011;29041;42.266;23.110;2024-03-06T05:17:25;16.38;;;7.72;;
43449;SDS011;29041;42.266;23.110;2024-03-06T05:20:12;12.93;;;7.38;;
43449;SDS011;29041;42.266;23.110;2024-03-06T05:23:02;16.55;;;7.50;;
43449;SDS011;29041;42.266;23.110;2024-03-06T05:25:51;12.77;;;6.65;;
43449;SDS011;29041;42.266;23.110;2024-03-06T05:28:38;20.90;;;7.35;;
43449;SDS011;29041;42.266;23.110;2024-03-06T05:31:25;16.13;;;6.60;;
43449;SDS011;29041;42.266;23.110;2024-03-06T05:34:12;18.42;;;8.15;;
43449;SDS011;29041;42.266;23.110;2024-03-06T05:36:59;20.02;;;7.90;;
43449;SDS011;29041;42.266;23.110;2024-03-06T05:39:46;19.45;;;6.90;;
43449;SDS011;29041;42.266;23.110;2024-03-06T05:42:35;12.02;;;6.15;;
43449;SDS011;29041;42.266;23.110;2024-03-06T05:45:22;16.02;;;7.80;;
43449;SDS011;29041;42.266;23.110;2024-03-06T05:48:09;21.60;;;8.18;;
43449;SDS011;29041;42.266;23.110;2024-03-06T05:50:58;16.48;;;6.95;;
43449;SDS011;29041;42.266;23.110;2024-03-06T05:53:45;14.13;;;7.15;;
43449;SDS011;29041;42.266;23.110;2024-03-06T05:56:32;13.82;;;7.00;;
43449;SDS011;29041;42.266;23.110;2024-03-06T05:59:21;12.35;;;6.65;;
43449;SDS011;29041;42.266;23.110;2024-03-06T06:02:09;21.23;;;7.63;;
43449;SDS011;29041;42.266;23.110;2024-03-06T06:04:58;15.85;;;8.02;;
43449;SDS011;29041;42.266;23.110;2024-03-06T06:07:45;19.70;;;8.50;;
43449;SDS011;29041;42.266;23.110;2024-03-06T06:10:32;19.30;;;8.27;;
43449;SDS011;29041;42.266;23.110;2024-03-06T06:13:20;19.70;;;8.52;;
43449;SDS011;29041;42.266;23.110;2024-03-06T06:16:09;19.40;;;9.32;;
43449;SDS011;29041;42.266;23.110;2024-03-06T06:18:56;18.55;;;8.98;;
43449;SDS011;29041;42.266;23.110;2024-03-06T06:21:43;17.80;;;8.73;;
43449;SDS011;29041;42.266;23.110;2024-03-06T06:24:31;25.70;;;11.20;;
43449;SDS011;29041;42.266;23.110;2024-03-06T06:27:19;15.13;;;8.65;;
43449;SDS011;29041;42.266;23.110;2024-03-06T06:30:06;18.10;;;9.23;;
43449;SDS011;29041;42.266;23.110;2024-03-06T06:32:58;16.73;;;8.73;;
43449;SDS011;29041;42.266;23.110;2024-03-06T06:35:46;20.10;;;9.07;;
43449;SDS011;29041;42.266;23.110;2024-03-06T06:38:33;24.40;;;11.93;;
43449;SDS011;29041;42.266;23.110;2024-03-06T06:41:20;25.67;;;10.93;;
43449;SDS011;29041;42.266;23.110;2024-03-06T06:44:08;29.52;;;11.52;;
43449;SDS011;29041;42.266;23.110;2024-03-06T06:46:55;28.08;;;12.27;;
43449;SDS011;29041;42.266;23.110;2024-03-06T06:49:44;15.82;;;8.93;;
43449;SDS011;29041;42.266;23.110;2024-03-06T06:52:31;20.42;;;10.00;;
43449;SDS011;29041;42.266;23.110;2024-03-06T06:55:19;18.50;;;9.85;;
43449;SDS011;29041;42.266;23.110;2024-03-06T06:58:08;17.05;;;8.77;;
43449;SDS011;29041;42.266;23.110;2024-03-06T07:00:55;19.20;;;8.85;;
43449;SDS011;29041;42.266;23.110;2024-03-06T07:03:42;25.15;;;15.10;;
43449;SDS011;29041;42.266;23.110;2024-03-06T07:06:33;20.58;;;9.77;;
43449;SDS011;29041;42.266;23.110;2024-03-06T07:09:20;20.58;;;12.30;;
43449;SDS011;29041;42.266;23.110;2024-03-06T07:12:10;18.15;;;9.38;;
43449;SDS011;29041;42.266;23.110;2024-03-06T07:14:57;23.17;;;12.00;;
43449;SDS011;29041;42.266;23.110;2024-03-06T07:17:45;16.85;;;9.50;;
43449;SDS011;29041;42.266;23.110;2024-03-06T07:20:32;16.02;;;8.52;;
43449;SDS011;29041;42.266;23.110;2024-03-06T07:23:21;23.45;;;13.85;;
43449;SDS011;29041;42.266;23.110;2024-03-06T07:26:08;16.00;;;7.90;;
43449;SDS011;29041;42.266;23.110;2024-03-06T07:28:55;23.20;;;12.88;;
43449;SDS011;29041;42.266;23.110;2024-03-06T07:31:43;15.70;;;8.88;;
43449;SDS011;29041;42.266;23.110;2024-03-06T07:34:31;17.10;;;9.20;;
43449;SDS011;29041;42.266;23.110;2024-03-06T07:37:18;15.13;;;8.43;;
43449;SDS011;29041;42.266;23.110;2024-03-06T07:40:08;19.05;;;10.10;;
43449;SDS011;29041;42.266;23.110;2024-03-06T07:42:56;19.52;;;9.50;;
43449;SDS011;29041;42.266;23.110;2024-03-06T07:45:43;13.18;;;6.72;;
43449;SDS011;29041;42.266;23.110;2024-03-06T07:48:30;17.45;;;8.77;;
43449;SDS011;29041;42.266;23.110;2024-03-06T07:51:17;14.02;;;7.07;;
43449;SDS011;29041;42.266;23.110;2024-03-06T07:54:04;13.60;;;6.55;;
43449;SDS011;29041;42.266;23.110;2024-03-06T07:56:53;12.82;;;6.43;;
43449;SDS011;29041;42.266;23.110;2024-03-06T07:59:40;11.60;;;7.00;;
43449;SDS011;29041;42.266;23.110;2024-03-06T08:02:27;14.35;;;7.25;;
43449;SDS011;29041;42.266;23.110;2024-03-06T08:05:15;13.40;;;6.53;;
43449;SDS011;29041;42.266;23.110;2024-03-06T08:08:03;10.85;;;6.57;;
43449;SDS011;29041;42.266;23.110;2024-03-06T08:10:51;11.45;;;6.65;;
43449;SDS011;29041;42.266;23.110;2024-03-06T08:13:39;11.25;;;5.47;;
43449;SDS011;29041;42.266;23.110;2024-03-06T08:16:27;12.07;;;5.68;;
43449;SDS011;29041;42.266;23.110;2024-03-06T08:19:15;9.35;;;4.70;;
43449;SDS011;29041;42.266;23.110;2024-03-06T08:22:02;8.90;;;4.72;;
43449;SDS011;29041;42.266;23.110;2024-03-06T08:24:49;11.35;;;6.25;;
43449;SDS011;29041;42.266;23.110;2024-03-06T08:27:37;8.63;;;5.05;;
43449;SDS011;29041;42.266;23.110;2024-03-06T08:30:27;6.88;;;4.43;;
43449;SDS011;29041;42.266;23.110;2024-03-06T08:33:15;10.00;;;5.28;;
43449;SDS011;29041;42.266;23.110;2024-03-06T08:36:03;9.52;;;4.70;;
43449;SDS011;29041;42.266;23.110;2024-03-06T08:38:51;8.13;;;4.22;;
43449;SDS011;29041;42.266;23.110;2024-03-06T08:41:38;7.88;;;4.88;;
43449;SDS011;29041;42.266;23.110;2024-03-06T08:44:25;10.45;;;5.22;;
43449;SDS011;29041;42.266;23.110;2024-03-06T08:47:14;8.27;;;5.00;;
43449;SDS011;29041;42.266;23.110;2024-03-06T08:50:02;9.32;;;5.45;;
43449;SDS011;29041;42.266;23.110;2024-03-06T08:52:50;8.95;;;4.28;;
43449;SDS011;29041;42.266;23.110;2024-03-06T08:55:37;9.25;;;4.15;;
43449;SDS011;29041;42.266;23.110;2024-03-06T08:58:24;18.90;;;8.07;;
43449;SDS011;29041;42.266;23.110;2024-03-06T09:01:11;33.30;;;14.52;;
43449;SDS011;29041;42.266;23.110;2024-03-06T09:04:01;10.30;;;5.70;;
43449;SDS011;29041;42.266;23.110;2024-03-06T09:06:48;11.52;;;6.13;;
43449;SDS011;29041;42.266;23.110;2024-03-06T09:09:35;5.00;;;3.85;;
43449;SDS011;29041;42.266;23.110;2024-03-06T09:12:23;12.48;;;4.57;;
43449;SDS011;29041;42.266;23.110;2024-03-06T09:15:10;8.98;;;5.40;;
43449;SDS011;29041;42.266;23.110;2024-03-06T09:17:58;10.40;;;5.63;;
43449;SDS011;29041;42.266;23.110;2024-03-06T09:20:46;8.75;;;5.05;;
43449;SDS011;29041;42.266;23.110;2024-03-06T09:23:33;6.78;;;4.47;;
43449;SDS011;29041;42.266;23.110;2024-03-06T09:26:20;9.05;;;4.90;;
43449;SDS011;29041;42.266;23.110;2024-03-06T09:29:08;10.60;;;4.93;;
43449;SDS011;29041;42.266;23.110;2024-03-06T09:31:55;7.38;;;4.20;;
43449;SDS011;29041;42.266;23.110;2024-03-06T09:34:42;7.00;;;4.20;;
43449;SDS011;29041;42.266;23.110;2024-03-06T09:37:31;6.82;;;4.05;;
43449;SDS011;29041;42.266;23.110;2024-03-06T09:40:22;8.77;;;4.32;;
43449;SDS011;29041;42.266;23.110;2024-03-06T09:43:10;8.65;;;4.95;;
43449;SDS011;29041;42.266;23.110;2024-03-06T09:45:57;6.00;;;3.72;;
43449;SDS011;29041;42.266;23.110;2024-03-06T09:48:45;8.15;;;5.22;;
43449;SDS011;29041;42.266;23.110;2024-03-06T09:51:34;8.80;;;4.60;;
43449;SDS011;29041;42.266;23.110;2024-03-06T09:54:23;7.78;;;4.97;;
43449;SDS011;29041;42.266;23.110;2024-03-06T09:57:12;13.45;;;5.90;;
43449;SDS011;29041;42.266;23.110;2024-03-06T10:00:00;29.80;;;13.00;;
43449;SDS011;29041;42.266;23.110;2024-03-06T10:02:49;10.32;;;5.45;;
43449;SDS011;29041;42.266;23.110;2024-03-06T10:05:41;6.93;;;4.10;;
43449;SDS011;29041;42.266;23.110;2024-03-06T10:08:28;13.27;;;5.63;;
43449;SDS011;29041;42.266;23.110;2024-03-06T10:11:19;8.20;;;4.13;;
43449;SDS011;29041;42.266;23.110;2024-03-06T10:14:06;7.97;;;4.45;;
43449;SDS011;29041;42.266;23.110;2024-03-06T10:16:54;6.85;;;3.90;;
43449;SDS011;29041;42.266;23.110;2024-03-06T10:19:42;6.70;;;4.40;;
43449;SDS011;29041;42.266;23.110;2024-03-06T10:22:35;7.65;;;4.07;;
43449;SDS011;29041;42.266;23.110;2024-03-06T10:25:23;11.43;;;5.20;;
43449;SDS011;29041;42.266;23.110;2024-03-06T10:28:13;7.88;;;4.68;;
43449;SDS011;29041;42.266;23.110;2024-03-06T10:31:02;6.43;;;3.63;;
43449;SDS011;29041;42.266;23.110;2024-03-06T10:33:52;12.38;;;4.97;;
43449;SDS011;29041;42.266;23.110;2024-03-06T10:36:39;6.72;;;4.60;;
43449;SDS011;29041;42.266;23.110;2024-03-06T10:39:28;7.38;;;4.20;;
43449;SDS011;29041;42.266;23.110;2024-03-06T10:42:17;7.20;;;3.42;;
43449;SDS011;29041;42.266;23.110;2024-03-06T10:45:07;6.88;;;3.45;;
43449;SDS011;29041;42.266;23.110;2024-03-06T10:47:59;8.55;;;3.97;;
43449;SDS011;29041;42.266;23.110;2024-03-06T10:50:48;7.10;;;3.45;;
43449;SDS011;29041;42.266;23.110;2024-03-06T10:53:36;6.05;;;3.88;;
43449;SDS011;29041;42.266;23.110;2024-03-06T10:56:25;6.22;;;3.88;;
43449;SDS011;29041;42.266;23.110;2024-03-06T10:59:12;4.45;;;2.92;;
43449;SDS011;29041;42.266;23.110;2024-03-06T11:02:03;5.88;;;3.75;;
43449;SDS011;29041;42.266;23.110;2024-03-06T11:04:50;7.72;;;3.33;;
43449;SDS011;29041;42.266;23.110;2024-03-06T11:07:38;6.82;;;3.88;;
43449;SDS011;29041;42.266;23.110;2024-03-06T11:10:32;5.65;;;3.90;;
43449;SDS011;29041;42.266;23.110;2024-03-06T11:13:22;6.65;;;3.22;;
43449;SDS011;29041;42.266;23.110;2024-03-06T11:16:11;4.80;;;2.42;;
43449;SDS011;29041;42.266;23.110;2024-03-06T11:19:06;6.28;;;3.10;;
43449;SDS011;29041;42.266;23.110;2024-03-06T11:21:54;6.05;;;3.53;;
43449;SDS011;29041;42.266;23.110;2024-03-06T11:24:41;4.63;;;3.70;;
43449;SDS011;29041;42.266;23.110;2024-03-06T11:27:28;3.85;;;2.95;;
43449;SDS011;29041;42.266;23.110;2024-03-06T11:30:18;6.07;;;3.08;;
43449;SDS011;29041;42.266;23.110;2024-03-06T11:33:06;4.93;;;2.75;;
43449;SDS011;29041;42.266;23.110;2024-03-06T11:36:19;5.80;;;3.45;;
43449;SDS011;29041;42.266;23.110;2024-03-06T11:39:08;8.40;;;3.85;;
43449;SDS011;29041;42.266;23.110;2024-03-06T11:41:55;5.97;;;2.97;;
43449;SDS011;29041;42.266;23.110;2024-03-06T11:44:52;5.47;;;2.58;;
43449;SDS011;29041;42.266;23.110;2024-03-06T11:47:58;4.75;;;3.20;;
43449;SDS011;29041;42.266;23.110;2024-03-06T11:50:46;4.07;;;2.35;;
43449;SDS011;29041;42.266;23.110;2024-03-06T11:53:35;5.53;;;3.03;;
43449;SDS011;29041;42.266;23.110;2024-03-06T11:56:24;5.20;;;2.90;;
43449;SDS011;29041;42.266;23.110;2024-03-06T11:59:12;6.07;;;3.00;;
43449;SDS011;29041;42.266;23.110;2024-03-06T12:02:00;5.50;;;2.85;;
43449;SDS011;29041;42.266;23.110;2024-03-06T12:04:48;7.28;;;3.25;;
43449;SDS011;29041;42.266;23.110;2024-03-06T12:07:44;6.75;;;4.00;;
43449;SDS011;29041;42.266;23.110;2024-03-06T12:10:36;6.00;;;2.95;;
43449;SDS011;29041;42.266;23.110;2024-03-06T12:13:24;6.65;;;2.53;;
43449;SDS011;29041;42.266;23.110;2024-03-06T12:16:11;5.63;;;3.30;;
43449;SDS011;29041;42.266;23.110;2024-03-06T12:18:58;5.68;;;2.72;;
43449;SDS011;29041;42.266;23.110;2024-03-06T12:21:46;6.55;;;2.97;;
43449;SDS011;29041;42.266;23.110;2024-03-06T12:24:34;5.45;;;3.85;;
43449;SDS011;29041;42.266;23.110;2024-03-06T12:27:23;5.10;;;2.97;;
43449;SDS011;29041;42.266;23.110;2024-03-06T12:30:10;6.10;;;2.60;;
43449;SDS011;29041;42.266;23.110;2024-03-06T12:32:58;4.90;;;3.30;;
43449;SDS011;29041;42.266;23.110;2024-03-06T12:35:59;7.28;;;2.63;;
43449;SDS011;29041;42.266;23.110;2024-03-06T12:38:53;13.27;;;2.95;;
43449;SDS011;29041;42.266;23.110;2024-03-06T12:41:41;4.18;;;2.47;;
43449;SDS011;29041;42.266;23.110;2024-03-06T12:44:29;6.53;;;2.60;;
43449;SDS011;29041;42.266;23.110;2024-03-06T12:47:16;3.70;;;2.50;;
43449;SDS011;29041;42.266;23.110;2024-03-06T12:50:04;3.65;;;2.75;;
43449;SDS011;29041;42.266;23.110;2024-03-06T12:52:53;4.75;;;2.05;;
43449;SDS011;29041;42.266;23.110;2024-03-06T12:55:40;4.68;;;3.08;;
43449;SDS011;29041;42.266;23.110;2024-03-06T12:58:31;5.30;;;3.15;;
43449;SDS011;29041;42.266;23.110;2024-03-06T13:01:22;5.65;;;2.92;;
43449;SDS011;29041;42.266;23.110;2024-03-06T13:04:09;8.20;;;3.53;;
43449;SDS011;29041;42.266;23.110;2024-03-06T13:06:56;8.20;;;3.15;;
43449;SDS011;29041;42.266;23.110;2024-03-06T13:09:43;6.53;;;3.63;;
43449;SDS011;29041;42.266;23.110;2024-03-06T13:12:30;7.55;;;4.45;;
43449;SDS011;29041;42.266;23.110;2024-03-06T13:15:18;8.57;;;5.10;;
43449;SDS011;29041;42.266;23.110;2024-03-06T13:18:07;8.77;;;4.72;;
43449;SDS011;29041;42.266;23.110;2024-03-06T13:20:54;6.72;;;4.40;;
43449;SDS011;29041;42.266;23.110;2024-03-06T13:23:43;9.90;;;5.43;;
43449;SDS011;29041;42.266;23.110;2024-03-06T13:26:30;6.47;;;4.90;;
43449;SDS011;29041;42.266;23.110;2024-03-06T13:29:18;11.15;;;6.63;;
43449;SDS011;29041;42.266;23.110;2024-03-06T13:32:05;7.15;;;5.10;;
43449;SDS011;29041;42.266;23.110;2024-03-06T13:34:54;6.80;;;4.43;;
43449;SDS011;29041;42.266;23.110;2024-03-06T13:37:44;6.18;;;4.05;;
43449;SDS011;29041;42.266;23.110;2024-03-06T13:40:32;6.20;;;3.85;;
43449;SDS011;29041;42.266;23.110;2024-03-06T13:43:19;7.72;;;3.80;;
43449;SDS011;29041;42.266;23.110;2024-03-06T13:46:08;6.80;;;3.63;;
43449;SDS011;29041;42.266;23.110;2024-03-06T13:48:56;4.32;;;3.08;;
43449;SDS011;29041;42.266;23.110;2024-03-06T13:51:44;5.80;;;3.58;;
43449;SDS011;29041;42.266;23.110;2024-03-06T13:54:31;4.72;;;2.70;;
43449;SDS011;29041;42.266;23.110;2024-03-06T13:57:18;4.43;;;3.08;;
43449;SDS011;29041;42.266;23.110;2024-03-06T14:00:06;6.35;;;3.92;;
43449;SDS011;29041;42.266;23.110;2024-03-06T14:02:58;7.03;;;3.78;;
43449;SDS011;29041;42.266;23.110;2024-03-06T14:05:45;8.20;;;3.60;;
43449;SDS011;29041;42.266;23.110;2024-03-06T14:08:33;10.25;;;4.15;;
43449;SDS011;29041;42.266;23.110;2024-03-06T14:11:21;5.75;;;2.90;;
43449;SDS011;29041;42.266;23.110;2024-03-06T14:14:08;6.63;;;3.75;;
43449;SDS011;29041;42.266;23.110;2024-03-06T14:16:56;6.00;;;3.33;;
43449;SDS011;29041;42.266;23.110;2024-03-06T14:19:43;19.05;;;7.32;;
43449;SDS011;29041;42.266;23.110;2024-03-06T14:22:31;14.48;;;5.93;;
43449;SDS011;29041;42.266;23.110;2024-03-06T14:25:19;6.10;;;3.95;;
43449;SDS011;29041;42.266;23.110;2024-03-06T14:28:06;8.88;;;4.40;;
43449;SDS011;29041;42.266;23.110;2024-03-06T14:30:54;11.55;;;5.93;;
43449;SDS011;29041;42.266;23.110;2024-03-06T14:33:41;7.10;;;4.55;;
43449;SDS011;29041;42.266;23.110;2024-03-06T14:36:28;6.30;;;3.50;;
43449;SDS011;29041;42.266;23.110;2024-03-06T14:39:16;5.18;;;3.13;;
43449;SDS011;29041;42.266;23.110;2024-03-06T14:42:04;5.72;;;3.13;;
43449;SDS011;29041;42.266;23.110;2024-03-06T14:44:52;3.70;;;3.35;;
43449;SDS011;29041;42.266;23.110;2024-03-06T14:47:39;4.72;;;2.78;;
43449;SDS011;29041;42.266;23.110;2024-03-06T14:50:26;5.35;;;3.30;;
43449;SDS011;29041;42.266;23.110;2024-03-06T14:53:13;6.50;;;3.38;;
43449;SDS011;29041;42.266;23.110;2024-03-06T14:56:00;6.40;;;3.33;;
43449;SDS011;29041;42.266;23.110;2024-03-06T14:58:50;4.55;;;3.40;;
43449;SDS011;29041;42.266;23.110;2024-03-06T15:01:37;4.57;;;2.75;;
43449;SDS011;29041;42.266;23.110;2024-03-06T15:04:24;4.20;;;3.05;;
43449;SDS011;29041;42.266;23.110;2024-03-06T15:07:12;6.32;;;3.53;;
43449;SDS011;29041;42.266;23.110;2024-03-06T15:09:59;7.05;;;2.85;;
43449;SDS011;29041;42.266;23.110;2024-03-06T15:12:46;5.55;;;3.42;;
43449;SDS011;29041;42.266;23.110;2024-03-06T15:15:35;5.65;;;3.45;;
43449;SDS011;29041;42.266;23.110;2024-03-06T15:18:23;6.28;;;3.05;;
43449;SDS011;29041;42.266;23.110;2024-03-06T15:21:10;4.70;;;3.00;;
43449;SDS011;29041;42.266;23.110;2024-03-06T15:23:58;4.47;;;3.20;;
43449;SDS011;29041;42.266;23.110;2024-03-06T15:26:45;5.07;;;3.38;;
43449;SDS011;29041;42.266;23.110;2024-03-06T15:29:32;6.22;;;2.85;;
43449;SDS011;29041;42.266;23.110;2024-03-06T15:32:21;4.80;;;2.45;;
43449;SDS011;29041;42.266;23.110;2024-03-06T15:35:08;8.73;;;3.45;;
43449;SDS011;29041;42.266;23.110;2024-03-06T15:37:57;8.45;;;4.60;;
43449;SDS011;29041;42.266;23.110;2024-03-06T15:40:44;6.90;;;4.38;;
43449;SDS011;29041;42.266;23.110;2024-03-06T15:43:33;13.15;;;9.27;;
43449;SDS011;29041;42.266;23.110;2024-03-06T15:46:20;13.70;;;10.00;;
43449;SDS011;29041;42.266;23.110;2024-03-06T15:49:19;19.13;;;9.48;;
43449;SDS011;29041;42.266;23.110;2024-03-06T15:52:10;17.33;;;7.18;;
43449;SDS011;29041;42.266;23.110;2024-03-06T15:54:57;27.00;;;10.15;;
43449;SDS011;29041;42.266;23.110;2024-03-06T15:57:44;27.92;;;11.45;;
43449;SDS011;29041;42.266;23.110;2024-03-06T16:00:31;26.88;;;11.85;;
43449;SDS011;29041;42.266;23.110;2024-03-06T16:03:18;33.05;;;13.40;;
43449;SDS011;29041;42.266;23.110;2024-03-06T16:06:06;45.95;;;19.50;;
43449;SDS011;29041;42.266;23.110;2024-03-06T16:08:54;40.75;;;17.10;;
43449;SDS011;29041;42.266;23.110;2024-03-06T16:11:41;34.22;;;12.57;;
43449;SDS011;29041;42.266;23.110;2024-03-06T16:14:28;20.77;;;8.80;;
43449;SDS011;29041;42.266;23.110;2024-03-06T16:17:15;28.85;;;12.40;;
43449;SDS011;29041;42.266;23.110;2024-03-06T16:20:03;17.45;;;10.60;;
43449;SDS011;29041;42.266;23.110;2024-03-06T16:22:52;21.55;;;11.13;;
43449;SDS011;29041;42.266;23.110;2024-03-06T16:25:39;17.08;;;9.55;;
43449;SDS011;29041;42.266;23.110;2024-03-06T16:28:28;12.88;;;7.35;;